Time;durP1;ratioP1;P1;durP2;ratioP2;P2;SDS_P1;SDS_P2;PMS_P1;PMS_P2;Temp;Humidity;BMP_temperature;BMP_pressure;BME280_temperature;BME280_humidity;BME280_pressure;Samples;Min_cycle;Max_cycle;Signal;HPM_P1;HPM_P2
2023/09/12 00:01:40;;;;;;;14.18;10.10;;;15.50;99.90;;;;;;5019644;28;20103;-74
2023/09/12 00:04:06;;;;;;;15.35;9.57;;;15.50;99.90;;;;;;5020128;28;20037;-74
2023/09/12 00:06:31;;;;;;;11.50;9.40;;;15.50;99.90;;;;;;5020184;28;20025;-74
2023/09/12 00:08:57;;;;;;;10.27;8.43;;;15.50;99.90;;;;;;5020532;28;20025;-74
2023/09/12 00:11:25;;;;;;;14.00;10.20;;;15.50;99.90;;;;;;5017660;28;20530;-74
2023/09/12 00:13:51;;;;;;;16.60;9.23;;;15.40;99.90;;;;;;5017030;28;20257;-74
2023/09/12 00:16:16;;;;;;;10.88;9.35;;;15.40;99.90;;;;;;5031798;28;20124;-74
2023/09/12 00:18:42;;;;;;;13.00;10.13;;;15.40;99.90;;;;;;5025983;28;20112;-74
2023/09/12 00:21:08;;;;;;;14.43;9.82;;;15.40;99.90;;;;;;5021052;28;20034;-74
2023/09/12 00:23:33;;;;;;;12.45;10.07;;;15.40;99.90;;;;;;5018558;28;20018;-74
2023/09/12 00:25:59;;;;;;;13.43;10.40;;;15.40;99.90;;;;;;5024834;28;20078;-74
2023/09/12 00:28:24;;;;;;;14.00;10.00;;;15.40;99.90;;;;;;5021398;28;20043;-74
2023/09/12 00:30:51;;;;;;;11.75;8.90;;;15.30;99.90;;;;;;5017846;28;20413;-74
2023/09/12 00:33:16;;;;;;;12.20;8.57;;;15.30;99.90;;;;;;5022704;28;20135;-74
2023/09/12 00:35:42;;;;;;;14.48;10.73;;;15.30;99.90;;;;;;5018820;28;20541;-73
2023/09/12 00:38:09;;;;;;;11.75;9.70;;;15.30;99.90;;;;;;5017822;28;20030;-73
2023/09/12 00:40:34;;;;;;;16.48;10.82;;;15.30;99.90;;;;;;5024682;28;20021;-73
2023/09/12 00:43:00;;;;;;;15.02;11.00;;;15.30;99.90;;;;;;5026464;28;20025;-73
2023/09/12 00:45:26;;;;;;;14.65;10.23;;;15.20;99.90;;;;;;5024549;28;20120;-73
2023/09/12 00:47:53;;;;;;;14.25;10.45;;;15.20;99.90;;;;;;5024591;28;20462;-74
2023/09/12 00:50:20;;;;;;;10.50;9.40;;;15.20;99.90;;;;;;5020663;28;20065;-73
2023/09/12 00:52:47;;;;;;;15.55;11.90;;;15.20;99.90;;;;;;5017360;28;20014;-73
2023/09/12 00:55:13;;;;;;;14.23;10.73;;;15.20;99.90;;;;;;5023084;28;20409;-73
2023/09/12 00:57:38;;;;;;;13.23;9.52;;;15.20;99.90;;;;;;5018742;28;20017;-73
2023/09/12 01:00:11;;;;;;;11.25;9.50;;;15.10;99.90;;;;;;5019364;28;20088;-73
2023/09/12 01:02:45;;;;;;;11.73;9.07;;;15.10;99.90;;;;;;5022030;28;20112;-73
2023/09/12 01:05:14;;;;;;;15.50;10.48;;;15.10;99.90;;;;;;5024278;28;20092;-74
2023/09/12 01:07:39;;;;;;;13.82;9.80;;;15.10;99.90;;;;;;5020176;28;20509;-74
2023/09/12 01:10:06;;;;;;;13.15;9.63;;;15.00;99.90;;;;;;5021779;28;20028;-74
2023/09/12 01:12:32;;;;;;;12.35;9.43;;;15.10;99.90;;;;;;5022017;28;20033;-74
2023/09/12 01:14:57;;;;;;;12.30;9.80;;;15.00;99.90;;;;;;5017145;28;20025;-73
2023/09/12 01:17:24;;;;;;;11.68;9.50;;;15.00;99.90;;;;;;5022104;28;20108;-74
2023/09/12 01:19:50;;;;;;;13.27;10.07;;;15.00;99.90;;;;;;5017507;28;20481;-73
2023/09/12 01:22:46;;;;;;;12.98;9.88;;;14.90;99.90;;;;;;5020845;28;20120;-73
2023/09/12 01:25:27;;;;;;;12.70;9.80;;;14.90;99.90;;;;;;5015105;28;20481;-60
2023/09/12 01:27:56;;;;;;;12.88;9.82;;;14.90;99.90;;;;;;5019871;28;20031;-63
2023/09/12 01:30:25;;;;;;;11.85;8.98;;;14.90;99.90;;;;;;5019105;28;20021;-63
2023/09/12 01:32:51;;;;;;;15.70;10.93;;;14.90;99.90;;;;;;5019477;28;20429;-64
2023/09/12 01:35:17;;;;;;;10.63;8.38;;;14.90;99.90;;;;;;5018637;28;20394;-66
2023/09/12 01:37:42;;;;;;;14.43;10.95;;;14.90;99.90;;;;;;5018392;28;20029;-68
2023/09/12 01:40:09;;;;;;;13.27;11.38;;;14.90;99.90;;;;;;5019529;28;20117;-69
2023/09/12 01:42:37;;;;;;;10.98;9.57;;;14.80;99.90;;;;;;5016734;28;20120;-69
2023/09/12 01:45:04;;;;;;;12.95;10.63;;;14.80;99.90;;;;;;5020588;28;20052;-68
2023/09/12 01:47:30;;;;;;;13.27;10.05;;;14.80;99.90;;;;;;5020476;28;20073;-68
2023/09/12 01:49:58;;;;;;;14.25;11.13;;;14.80;99.90;;;;;;5019355;28;20017;-68
2023/09/12 01:52:26;;;;;;;14.07;10.73;;;14.70;99.90;;;;;;5018139;28;20079;-69
2023/09/12 01:54:53;;;;;;;13.55;10.15;;;14.70;99.90;;;;;;5019580;28;20044;-68
2023/09/12 01:57:21;;;;;;;13.63;10.10;;;14.70;99.90;;;;;;5019481;28;20029;-68
2023/09/12 01:59:48;;;;;;;12.98;10.90;;;14.70;99.90;;;;;;5030025;28;20152;-68
2023/09/12 02:02:17;;;;;;;13.25;10.90;;;14.70;99.90;;;;;;5019368;28;20401;-69
2023/09/12 02:05:10;;;;;;;11.25;10.02;;;14.70;99.90;;;;;;5019583;28;20028;-68
2023/09/12 02:07:41;;;;;;;12.40;10.02;;;14.60;99.90;;;;;;5016645;28;20025;-68
2023/09/12 02:10:07;;;;;;;13.77;10.32;;;14.60;99.90;;;;;;5014115;28;20053;-68
2023/09/12 02:12:32;;;;;;;15.43;10.13;;;14.60;99.90;;;;;;5020589;28;20436;-69
2023/09/12 02:14:58;;;;;;;13.43;10.45;;;14.60;99.90;;;;;;5018544;28;20082;-68
2023/09/12 02:17:23;;;;;;;14.30;10.80;;;14.60;99.90;;;;;;5025823;28;20029;-68
2023/09/12 02:19:49;;;;;;;14.35;10.55;;;14.60;99.90;;;;;;5023354;28;20037;-68
2023/09/12 02:22:15;;;;;;;12.68;10.02;;;14.60;99.90;;;;;;5019218;28;20511;-69
2023/09/12 02:24:40;;;;;;;14.98;11.02;;;14.50;99.90;;;;;;5019414;28;20104;-68
2023/09/12 02:27:06;;;;;;;11.98;10.55;;;14.50;99.90;;;;;;5019098;28;20022;-68
2023/09/12 02:29:34;;;;;;;14.23;10.10;;;14.50;99.90;;;;;;5019181;28;20501;-68
2023/09/12 02:31:59;;;;;;;15.77;12.13;;;14.50;99.90;;;;;;5019043;28;20048;-68
2023/09/12 02:34:25;;;;;;;14.93;11.18;;;14.50;99.90;;;;;;5020941;28;20026;-68
2023/09/12 02:36:51;;;;;;;16.90;11.63;;;14.40;99.90;;;;;;5023417;28;20029;-69
2023/09/12 02:39:16;;;;;;;15.45;11.30;;;14.40;99.90;;;;;;5019206;28;20104;-68
2023/09/12 02:41:42;;;;;;;14.82;11.07;;;14.40;99.90;;;;;;5019395;28;20095;-68
2023/09/12 02:44:07;;;;;;;13.20;10.85;;;14.40;99.90;;;;;;5024777;28;20148;-68
2023/09/12 02:46:33;;;;;;;12.52;9.80;;;14.40;99.90;;;;;;5022812;28;20025;-68
2023/09/12 02:48:58;;;;;;;14.98;11.50;;;14.40;99.90;;;;;;5024627;28;20051;-68
2023/09/12 02:51:25;;;;;;;14.32;11.05;;;14.30;99.90;;;;;;5022639;28;20485;-68
2023/09/12 02:53:51;;;;;;;13.02;10.48;;;14.30;99.90;;;;;;5025920;28;20496;-68
2023/09/12 02:56:17;;;;;;;16.23;11.15;;;14.30;99.90;;;;;;5026670;28;20034;-68
2023/09/12 02:58:46;;;;;;;15.32;11.85;;;14.30;99.90;;;;;;5022413;28;20050;-68
2023/09/12 03:01:18;;;;;;;14.65;9.68;;;14.30;99.90;;;;;;5026782;28;20025;-68
2023/09/12 03:03:47;;;;;;;12.35;10.43;;;14.30;99.90;;;;;;5022420;28;20029;-68
2023/09/12 03:06:18;;;;;;;10.77;9.32;;;14.30;99.90;;;;;;5019053;28;20037;-68
2023/09/12 03:08:43;;;;;;;15.40;11.32;;;14.30;99.90;;;;;;5024907;28;20029;-68
2023/09/12 03:11:09;;;;;;;14.85;11.68;;;14.30;99.90;;;;;;5021171;28;20441;-68
2023/09/12 03:13:37;;;;;;;20.25;12.90;;;14.20;99.90;;;;;;5017727;28;20489;-68
2023/09/12 03:16:02;;;;;;;15.38;11.75;;;14.20;99.90;;;;;;5024393;28;20044;-68
2023/09/12 03:18:28;;;;;;;17.08;12.23;;;14.20;99.90;;;;;;5019365;28;20084;-69
2023/09/12 03:20:53;;;;;;;14.68;12.05;;;14.20;99.90;;;;;;5024679;28;20024;-68
2023/09/12 03:23:21;;;;;;;14.88;12.88;;;14.20;99.90;;;;;;5020704;28;20057;-68
2023/09/12 03:25:47;;;;;;;16.23;12.23;;;14.10;99.90;;;;;;5020732;28;20061;-68
2023/09/12 03:28:12;;;;;;;14.52;11.95;;;14.10;99.90;;;;;;5025847;28;20496;-68
2023/09/12 03:30:39;;;;;;;14.82;12.65;;;14.10;99.90;;;;;;5022315;28;20025;-68
2023/09/12 03:33:05;;;;;;;16.98;12.57;;;14.10;99.90;;;;;;5018820;28;20045;-69
2023/09/12 03:35:34;;;;;;;15.25;12.70;;;14.10;99.90;;;;;;5022917;28;20477;-69
2023/09/12 03:38:00;;;;;;;15.50;11.52;;;14.10;99.90;;;;;;5022085;28;20052;-68
2023/09/12 03:40:27;;;;;;;16.65;12.07;;;14.00;99.90;;;;;;5019951;28;20030;-68
2023/09/12 03:42:53;;;;;;;14.20;11.68;;;14.00;99.90;;;;;;5023941;28;20072;-68
2023/09/12 03:45:19;;;;;;;17.33;11.73;;;14.10;99.90;;;;;;5024041;28;20060;-68
2023/09/12 03:47:46;;;;;;;13.20;11.48;;;14.00;99.90;;;;;;5024172;28;20026;-68
2023/09/12 03:50:12;;;;;;;15.75;12.48;;;14.00;99.90;;;;;;5019298;28;24787;-69
2023/09/12 03:52:38;;;;;;;17.88;12.90;;;14.00;99.90;;;;;;5018132;28;20032;-67
2023/09/12 03:55:04;;;;;;;15.73;12.30;;;13.90;99.90;;;;;;5024113;28;20481;-69
2023/09/12 03:57:29;;;;;;;15.60;11.85;;;14.00;99.90;;;;;;5020453;28;20700;-69
2023/09/12 03:59:55;;;;;;;13.18;11.35;;;14.00;99.90;;;;;;5020531;28;20069;-69
2023/09/12 04:02:20;;;;;;;13.73;11.18;;;13.90;99.90;;;;;;5027394;28;20024;-69
2023/09/12 04:04:46;;;;;;;16.13;12.25;;;13.90;99.90;;;;;;5017577;28;20044;-68
2023/09/12 04:07:11;;;;;;;17.55;12.70;;;13.90;99.90;;;;;;5024872;28;20661;-67
2023/09/12 04:09:37;;;;;;;16.90;12.38;;;13.90;99.90;;;;;;5025418;28;20028;-69
2023/09/12 04:12:02;;;;;;;15.20;11.80;;;13.90;99.90;;;;;;5021267;28;20104;-68
2023/09/12 04:14:28;;;;;;;17.88;12.88;;;13.90;99.90;;;;;;5018723;28;20021;-68
2023/09/12 04:16:53;;;;;;;15.65;12.00;;;13.90;99.90;;;;;;5022889;28;20037;-68
2023/09/12 04:19:19;;;;;;;17.05;11.50;;;13.90;99.90;;;;;;5019995;28;20032;-68
2023/09/12 04:21:44;;;;;;;14.50;11.23;;;13.80;99.90;;;;;;5017610;28;20080;-68
2023/09/12 04:24:10;;;;;;;14.77;12.57;;;13.80;99.90;;;;;;5023216;28;20472;-68
2023/09/12 04:26:36;;;;;;;17.20;13.32;;;13.80;99.90;;;;;;5022787;28;20024;-68
2023/09/12 04:29:01;;;;;;;14.95;12.40;;;13.90;99.90;;;;;;5023328;28;20033;-69
2023/09/12 04:31:27;;;;;;;14.25;12.27;;;13.80;99.90;;;;;;5021184;28;20033;-68
2023/09/12 04:33:53;;;;;;;14.43;11.93;;;13.90;99.90;;;;;;5021070;28;20025;-68
2023/09/12 04:36:20;;;;;;;17.42;13.82;;;13.90;99.90;;;;;;5020821;28;20060;-69
2023/09/12 04:38:45;;;;;;;14.60;11.65;;;13.90;99.90;;;;;;5020524;28;20330;-68
2023/09/12 04:41:15;;;;;;;16.00;11.90;;;13.90;99.90;;;;;;5020569;28;20374;-68
2023/09/12 04:43:41;;;;;;;15.80;12.60;;;13.90;99.90;;;;;;5024571;28;20017;-68
2023/09/12 04:46:06;;;;;;;15.57;12.50;;;13.90;99.90;;;;;;5021017;28;20026;-68
2023/09/12 04:48:32;;;;;;;16.08;11.82;;;14.00;99.90;;;;;;5026970;28;20021;-68
2023/09/12 04:50:57;;;;;;;18.63;13.90;;;14.00;99.90;;;;;;5026425;28;20033;-68
2023/09/12 04:53:23;;;;;;;14.32;12.82;;;14.10;99.90;;;;;;5020588;28;20022;-68
2023/09/12 04:55:48;;;;;;;16.13;13.20;;;14.10;99.90;;;;;;5016796;28;20041;-68
2023/09/12 04:58:14;;;;;;;15.88;12.15;;;14.20;99.90;;;;;;5017887;28;20068;-68
2023/09/12 05:00:40;;;;;;;16.95;11.98;;;14.30;99.90;;;;;;5017816;28;20030;-68
2023/09/12 05:03:05;;;;;;;17.02;12.32;;;14.30;99.90;;;;;;5030289;28;20048;-69
2023/09/12 05:05:35;;;;;;;14.05;12.35;;;14.40;99.90;;;;;;5019758;28;20512;-69
2023/09/12 05:08:00;;;;;;;15.50;12.18;;;14.40;99.90;;;;;;5020002;28;20032;-68
2023/09/12 05:10:26;;;;;;;16.60;12.45;;;14.50;99.90;;;;;;5023985;28;20507;-68
2023/09/12 05:12:51;;;;;;;16.45;13.13;;;14.60;99.90;;;;;;5019859;28;20413;-68
2023/09/12 05:15:17;;;;;;;18.55;13.15;;;14.70;99.90;;;;;;5014572;28;20033;-69
2023/09/12 05:17:42;;;;;;;17.10;12.32;;;14.80;99.90;;;;;;5021679;28;20160;-68
2023/09/12 05:20:08;;;;;;;17.88;14.20;;;14.90;99.90;;;;;;5019761;28;20091;-67
2023/09/12 05:22:34;;;;;;;18.85;12.02;;;15.00;99.90;;;;;;5021865;28;20041;-68
2023/09/12 05:24:59;;;;;;;14.43;11.68;;;15.10;99.90;;;;;;5019941;28;20026;-72
2023/09/12 05:27:25;;;;;;;14.13;12.20;;;15.30;99.90;;;;;;5020149;28;20068;-72
2023/09/12 05:29:50;;;;;;;13.10;10.52;;;15.80;99.90;;;;;;5020406;28;20029;-72
2023/09/12 05:32:16;;;;;;;12.05;10.75;;;16.50;99.90;;;;;;5021046;28;20053;-72
2023/09/12 05:34:42;;;;;;;13.07;10.90;;;17.20;99.90;;;;;;5021076;28;20303;-72
2023/09/12 05:37:07;;;;;;;12.18;9.70;;;18.00;99.90;;;;;;5013918;28;20570;-73
2023/09/12 05:39:33;;;;;;;12.43;10.32;;;18.60;99.90;;;;;;5012752;28;20041;-72
2023/09/12 05:41:58;;;;;;;13.20;9.15;;;19.30;99.90;;;;;;5021373;28;20422;-72
2023/09/12 05:44:24;;;;;;;14.77;10.13;;;19.90;99.90;;;;;;5014704;28;20037;-72
2023/09/12 05:46:49;;;;;;;11.02;9.85;;;20.60;99.40;;;;;;5014422;28;20525;-71
2023/09/12 05:49:15;;;;;;;13.10;9.45;;;21.20;97.50;;;;;;5018909;28;20063;-72
2023/09/12 05:51:40;;;;;;;12.30;9.93;;;21.80;95.50;;;;;;5012868;28;20065;-73
2023/09/12 05:54:07;;;;;;;12.88;9.15;;;22.40;94.00;;;;;;5014521;28;20052;-72
2023/09/12 05:56:33;;;;;;;12.07;10.00;;;23.00;92.50;;;;;;5006570;28;20516;-71
2023/09/12 05:58:59;;;;;;;12.25;10.18;;;23.60;91.00;;;;;;5010523;28;20034;-73
2023/09/12 06:01:24;;;;;;;12.35;8.82;;;24.20;89.70;;;;;;5017291;28;20045;-73
2023/09/12 06:03:50;;;;;;;12.00;9.05;;;24.70;87.10;;;;;;5010234;28;20029;-73
2023/09/12 06:06:16;;;;;;;10.95;9.45;;;25.00;85.00;;;;;;5012160;28;20397;-72
2023/09/12 06:08:41;;;;;;;12.07;8.77;;;24.90;85.20;;;;;;5011190;28;20030;-74
2023/09/12 06:11:06;;;;;;;10.45;8.60;;;25.10;83.30;;;;;;5014172;28;20038;-73
2023/09/12 06:13:32;;;;;;;12.00;8.95;;;25.50;82.30;;;;;;5009218;28;20049;-73
2023/09/12 06:15:58;;;;;;;11.70;9.95;;;25.90;80.30;;;;;;5011314;28;20591;-74
2023/09/12 06:18:24;;;;;;;12.52;9.88;;;26.10;79.00;;;;;;5026085;28;20119;-75
2023/09/12 06:20:50;;;;;;;9.90;8.90;;;26.40;77.80;;;;;;5016768;28;20399;-75
2023/09/12 06:23:15;;;;;;;12.07;9.00;;;26.90;76.30;;;;;;5015505;28;20030;-73
2023/09/12 06:25:41;;;;;;;10.77;8.68;;;27.40;75.10;;;;;;5017526;28;20069;-74
2023/09/12 06:28:09;;;;;;;12.48;9.13;;;28.00;73.30;;;;;;5014195;28;20041;-73
2023/09/12 06:30:34;;;;;;;11.48;9.00;;;28.60;71.30;;;;;;5020482;28;20032;-74
2023/09/12 06:33:00;;;;;;;9.50;8.10;;;29.30;69.20;;;;;;5016260;28;20038;-73
2023/09/12 06:35:25;;;;;;;8.63;7.72;;;29.80;67.50;;;;;;5017496;28;20662;-74
2023/09/12 06:37:51;;;;;;;9.90;8.90;;;30.30;65.80;;;;;;5015406;28;20034;-74
2023/09/12 06:40:16;;;;;;;9.23;7.68;;;30.70;63.00;;;;;;5012396;28;20755;-73
2023/09/12 06:42:42;;;;;;;9.82;8.43;;;31.20;60.80;;;;;;5014962;28;20493;-74
2023/09/12 06:45:08;;;;;;;15.00;7.78;;;31.70;58.50;;;;;;5014231;28;20032;-73
2023/09/12 06:47:33;;;;;;;9.48;7.45;;;32.10;56.00;;;;;;5016008;28;20017;-74
2023/09/12 06:49:59;;;;;;;9.80;7.32;;;32.50;54.60;;;;;;5012837;28;20548;-74
2023/09/12 06:52:24;;;;;;;7.88;7.05;;;32.80;53.00;;;;;;5015952;28;20058;-75
2023/09/12 06:54:50;;;;;;;8.45;7.53;;;33.20;51.20;;;;;;5012261;28;20025;-75
2023/09/12 06:57:15;;;;;;;8.73;7.07;;;33.50;48.90;;;;;;5022229;28;20037;-75
2023/09/12 06:59:41;;;;;;;8.75;7.50;;;33.80;47.20;;;;;;5016251;28;20033;-75
2023/09/12 07:02:07;;;;;;;10.18;6.65;;;34.20;45.40;;;;;;5016247;28;20026;-75
2023/09/12 07:04:32;;;;;;;6.93;6.22;;;34.50;43.10;;;;;;5013815;28;20022;-75
2023/09/12 07:06:58;;;;;;;7.00;6.13;;;34.70;41.60;;;;;;5013751;28;20034;-74
2023/09/12 07:09:24;;;;;;;9.75;6.55;;;34.80;40.10;;;;;;5015278;28;20052;-76
2023/09/12 07:11:49;;;;;;;7.30;6.30;;;34.80;38.60;;;;;;5012745;28;20497;-76
2023/09/12 07:14:15;;;;;;;7.78;6.22;;;34.90;36.80;;;;;;5006788;28;20029;-76
2023/09/12 07:16:40;;;;;;;6.60;5.90;;;35.00;35.80;;;;;;5019920;28;20053;-75
2023/09/12 07:19:06;;;;;;;6.95;5.80;;;35.10;34.70;;;;;;5014372;28;20091;-75
2023/09/12 07:21:32;;;;;;;9.68;5.80;;;35.10;33.60;;;;;;5018994;28;20033;-76
2023/09/12 07:23:57;;;;;;;6.93;6.05;;;35.00;32.20;;;;;;5011821;28;20029;-76
2023/09/12 07:26:23;;;;;;;7.32;5.60;;;35.00;30.80;;;;;;5013996;28;20022;-78
2023/09/12 07:28:49;;;;;;;8.25;5.75;;;34.90;30.00;;;;;;5013013;28;20024;-75
2023/09/12 07:31:14;;;;;;;5.78;5.28;;;34.90;29.20;;;;;;5013878;28;20551;-76
2023/09/12 07:33:41;;;;;;;6.43;5.68;;;34.80;28.60;;;;;;5014406;28;20032;-77
2023/09/12 07:36:06;;;;;;;6.10;5.50;;;34.80;28.20;;;;;;5013305;28;20029;-77
2023/09/12 07:38:35;;;;;;;5.65;4.80;;;34.80;28.00;;;;;;5018612;28;20033;-64
2023/09/12 07:41:01;;;;;;;5.85;5.10;;;34.80;28.00;;;;;;5012633;28;20052;-63
2023/09/12 07:43:26;;;;;;;5.95;4.82;;;34.70;27.10;;;;;;5017005;28;20800;-63
2023/09/12 07:45:56;;;;;;;5.72;5.18;;;34.70;26.80;;;;;;5014620;28;20032;-63
2023/09/12 07:48:21;;;;;;;6.78;4.85;;;34.80;25.70;;;;;;5018990;28;20029;-64
2023/09/12 07:50:47;;;;;;;7.53;4.65;;;34.80;26.00;;;;;;5015861;28;20036;-64
2023/09/12 07:53:12;;;;;;;5.70;4.88;;;34.80;25.90;;;;;;5013056;28;20045;-63
2023/09/12 07:55:45;;;;;;;5.38;4.88;;;34.60;25.40;;;;;;5015972;28;20224;-64
2023/09/12 07:58:12;;;;;;;10.30;5.18;;;34.70;25.20;;;;;;5018161;28;20035;-65
2023/09/12 08:00:37;;;;;;;8.45;5.53;;;34.70;25.00;;;;;;5022062;28;20025;-63
2023/09/12 08:03:03;;;;;;;6.80;4.40;;;34.80;24.60;;;;;;5013651;28;20486;-64
2023/09/12 08:05:29;;;;;;;9.60;5.15;;;34.70;24.10;;;;;;5014504;28;20091;-63
2023/09/12 08:07:55;;;;;;;7.88;4.85;;;34.70;24.00;;;;;;5011285;28;20025;-64
2023/09/12 08:10:20;;;;;;;9.40;5.05;;;34.80;23.80;;;;;;5017929;28;20021;-63
2023/09/12 08:12:46;;;;;;;9.30;4.18;;;34.80;23.50;;;;;;5013777;28;20032;-64
2023/09/12 08:15:11;;;;;;;5.93;4.68;;;34.70;23.20;;;;;;5007661;28;20105;-63
2023/09/12 08:17:38;;;;;;;7.20;3.97;;;34.60;23.20;;;;;;5014442;28;20064;-64
2023/09/12 08:20:05;;;;;;;10.00;4.30;;;34.60;23.00;;;;;;5011931;28;20109;-64
2023/09/12 08:22:30;;;;;;;5.43;4.38;;;34.60;22.90;;;;;;5014317;28;20025;-64
2023/09/12 08:24:56;;;;;;;5.43;4.43;;;34.50;22.60;;;;;;5008667;28;20038;-64
2023/09/12 08:27:21;;;;;;;5.03;4.30;;;34.50;22.50;;;;;;5013681;28;20405;-63
2023/09/12 08:29:48;;;;;;;4.70;4.22;;;34.60;22.50;;;;;;5016076;28;20067;-63
2023/09/12 08:32:13;;;;;;;10.18;4.43;;;34.60;22.30;;;;;;5011404;28;20108;-64
2023/09/12 08:34:39;;;;;;;5.63;4.15;;;34.60;22.00;;;;;;5015705;28;20083;-64
2023/09/12 08:37:04;;;;;;;4.28;3.78;;;34.50;21.70;;;;;;5011666;28;20033;-64
2023/09/12 08:39:42;;;;;;;6.47;4.28;;;34.50;21.80;;;;;;5014492;28;20056;-65
2023/09/12 08:42:13;;;;;;;4.93;3.92;;;34.70;19.50;;;;;;5016482;28;20156;-62
2023/09/12 08:44:40;;;;;;;5.65;3.72;;;34.70;20.80;;;;;;5013540;28;20401;-64
2023/09/12 08:47:09;;;;;;;4.93;3.45;;;34.80;20.60;;;;;;5017593;28;20029;-63
2023/09/12 08:49:35;;;;;;;5.43;3.90;;;34.80;20.20;;;;;;5015413;28;20477;-64
2023/09/12 08:52:01;;;;;;;4.88;3.92;;;34.90;19.80;;;;;;5015989;28;20029;-64
2023/09/12 08:54:26;;;;;;;4.47;3.95;;;34.90;19.30;;;;;;5013897;28;20486;-63
2023/09/12 08:56:54;;;;;;;7.15;4.00;;;35.00;19.10;;;;;;5012968;28;20025;-64
2023/09/12 08:59:20;;;;;;;4.28;3.80;;;34.80;18.90;;;;;;5013953;28;20021;-63
2023/09/12 09:01:46;;;;;;;4.10;3.70;;;34.90;18.80;;;;;;5015135;28;20060;-64
2023/09/12 09:04:12;;;;;;;7.03;4.05;;;35.10;18.70;;;;;;5019158;28;20044;-63
2023/09/12 09:06:40;;;;;;;5.28;3.75;;;35.10;18.30;;;;;;5019363;28;20029;-64
2023/09/12 09:09:06;;;;;;;7.43;3.97;;;35.20;18.00;;;;;;5011183;28;20449;-63
2023/09/12 09:11:32;;;;;;;5.75;3.85;;;35.20;17.90;;;;;;5014657;28;20063;-63
2023/09/12 09:13:57;;;;;;;6.40;4.28;;;35.30;17.60;;;;;;5007312;28;20029;-59
2023/09/12 09:16:23;;;;;;;6.40;4.25;;;35.20;17.30;;;;;;5013331;28;20061;-59
2023/09/12 09:18:57;;;;;;;4.05;3.47;;;35.30;17.30;;;;;;5014101;28;20033;-59
2023/09/12 09:21:30;;;;;;;6.38;3.25;;;35.30;17.00;;;;;;5011387;28;20097;-59
2023/09/12 09:24:00;;;;;;;3.85;3.35;;;35.30;16.90;;;;;;5010660;28;20029;-60
2023/09/12 09:26:46;;;;;;;6.85;4.35;;;35.40;16.90;;;;;;5019612;28;20518;-59
2023/09/12 09:29:16;;;;;;;5.40;3.50;;;35.40;16.70;;;;;;5015525;28;20100;-59
2023/09/12 09:31:43;;;;;;;7.85;3.83;;;35.40;16.30;;;;;;5014758;28;20048;-60
2023/09/12 09:34:19;;;;;;;6.90;3.47;;;35.40;16.20;;;;;;5010313;28;20173;-60
2023/09/12 09:36:51;;;;;;;5.13;3.88;;;35.50;15.50;;;;;;5012506;28;20087;-59
2023/09/12 09:39:18;;;;;;;4.10;3.45;;;35.40;15.60;;;;;;5008625;28;20092;-59
2023/09/12 09:41:48;;;;;;;7.20;3.75;;;35.40;16.10;;;;;;5013697;28;20104;-60
2023/09/12 09:44:14;;;;;;;3.92;3.42;;;35.40;15.30;;;;;;5012301;28;20071;-59
2023/09/12 09:46:43;;;;;;;7.32;4.22;;;35.40;15.20;;;;;;5014630;28;20492;-59
2023/09/12 09:49:17;;;;;;;5.60;4.30;;;35.40;14.70;;;;;;5014174;28;20060;-60
2023/09/12 09:51:43;;;;;;;4.55;3.78;;;35.30;15.30;;;;;;5011502;28;20555;-60
2023/09/12 09:54:11;;;;;;;6.80;4.07;;;35.30;15.30;;;;;;5010429;28;20536;-59
2023/09/12 09:56:54;;;;;;;8.77;5.20;;;35.40;15.30;;;;;;5016967;28;20014;-60
2023/09/12 09:59:22;;;;;;;4.85;3.92;;;35.30;14.90;;;;;;5010941;28;20026;-59
2023/09/12 10:01:50;;;;;;;4.38;3.90;;;35.20;14.80;;;;;;5011944;28;20041;-60
2023/09/12 10:04:16;;;;;;;6.78;3.85;;;35.20;14.50;;;;;;5016594;28;20100;-60
2023/09/12 10:06:45;;;;;;;7.20;3.47;;;35.20;14.30;;;;;;5016171;28;20108;-58
2023/09/12 10:09:13;;;;;;;3.92;3.50;;;35.20;14.30;;;;;;5013082;28;20026;-60
2023/09/12 10:11:44;;;;;;;4.30;3.55;;;35.10;14.20;;;;;;5016186;28;20032;-59
2023/09/12 10:14:12;;;;;;;7.35;3.88;;;35.00;14.00;;;;;;5007317;28;20025;-59
2023/09/12 10:16:51;;;;;;;5.05;3.60;;;34.90;13.80;;;;;;5016079;28;20037;-59
2023/09/12 10:19:28;;;;;;;10.30;4.70;;;34.90;14.00;;;;;;5010851;28;20120;-60
2023/09/12 10:22:17;;;;;;;5.80;4.20;;;34.70;13.80;;;;;;5010883;28;20028;-60
2023/09/12 10:24:45;;;;;;;5.72;4.18;;;34.50;14.10;;;;;;5015717;28;20079;-59
2023/09/12 10:27:12;;;;;;;8.95;3.90;;;34.30;14.10;;;;;;5013623;28;20040;-60
2023/09/12 10:29:37;;;;;;;7.18;3.78;;;34.20;14.20;;;;;;5013868;28;20044;-59
2023/09/12 10:32:03;;;;;;;5.82;4.20;;;34.00;14.20;;;;;;5014141;28;20045;-59
2023/09/12 10:34:31;;;;;;;9.45;4.20;;;33.80;14.50;;;;;;5016023;28;20397;-59
2023/09/12 10:36:59;;;;;;;7.50;3.70;;;33.70;14.80;;;;;;5011336;28;20049;-59
2023/09/12 10:39:28;;;;;;;11.65;4.28;;;33.50;15.10;;;;;;5009998;28;20032;-59
2023/09/12 10:41:54;;;;;;;9.18;4.03;;;33.30;15.40;;;;;;5013989;28;20030;-59
2023/09/12 10:44:21;;;;;;;11.88;4.10;;;33.20;15.70;;;;;;5012244;28;20033;-59
2023/09/12 10:46:48;;;;;;;8.25;3.85;;;33.00;16.00;;;;;;5014707;28;20492;-59
2023/09/12 10:49:15;;;;;;;10.77;4.40;;;32.80;16.50;;;;;;5013891;28;20018;-59
2023/09/12 10:51:42;;;;;;;9.30;4.63;;;32.60;17.20;;;;;;5009227;28;20449;-59
2023/09/12 10:54:09;;;;;;;9.13;4.85;;;32.50;17.40;;;;;;5009779;28;20089;-59
2023/09/12 10:56:35;;;;;;;10.57;4.60;;;32.40;17.30;;;;;;5020801;28;20010;-59
2023/09/12 10:59:06;;;;;;;10.02;4.75;;;32.40;17.50;;;;;;5005710;28;20025;-59
2023/09/12 11:01:36;;;;;;;7.72;4.80;;;32.20;17.90;;;;;;5010848;28;20033;-59
2023/09/12 11:04:27;;;;;;;9.02;4.53;;;32.10;18.40;;;;;;5015365;28;20060;-59
2023/09/12 11:06:53;;;;;;;11.82;4.97;;;31.90;18.40;;;;;;5015243;28;20116;-58
2023/09/12 11:09:25;;;;;;;10.73;4.85;;;31.60;18.30;;;;;;5021312;28;20088;-59
2023/09/12 11:11:53;;;;;;;7.25;4.22;;;31.60;18.40;;;;;;5017328;28;20174;-59
2023/09/12 11:14:19;;;;;;;5.32;3.55;;;31.60;18.30;;;;;;5009828;28;20029;-59
2023/09/12 11:17:07;;;;;;;9.63;4.30;;;31.60;18.00;;;;;;5014501;28;20048;-58
2023/09/12 11:19:52;;;;;;;10.63;4.00;;;31.60;19.20;;;;;;5014446;28;20033;-59
2023/09/12 11:22:30;;;;;;;13.00;4.38;;;31.60;18.70;;;;;;5013882;28;20024;-59
2023/09/12 11:24:57;;;;;;;6.95;4.20;;;31.60;19.00;;;;;;5015316;28;20037;-59
2023/09/12 11:27:32;;;;;;;8.27;4.75;;;31.60;18.60;;;;;;5014771;28;20048;-59
2023/09/12 11:30:07;;;;;;;6.07;4.43;;;31.40;19.40;;;;;;5017252;28;20135;-58
2023/09/12 11:32:36;;;;;;;7.65;4.53;;;31.30;20.20;;;;;;5011998;28;20045;-59
2023/09/12 11:35:10;;;;;;;9.05;4.10;;;31.20;19.60;;;;;;5016003;28;20108;-59
2023/09/12 11:37:37;;;;;;;6.28;4.53;;;31.20;19.90;;;;;;5014233;28;20104;-60
2023/09/12 11:40:11;;;;;;;12.85;4.78;;;31.20;19.90;;;;;;5012656;28;20057;-59
2023/09/12 11:42:41;;;;;;;9.88;5.15;;;30.80;20.50;;;;;;5015525;28;20389;-59
2023/09/12 11:45:10;;;;;;;10.95;4.97;;;30.60;20.20;;;;;;5017692;28;20026;-59
2023/09/12 11:47:43;;;;;;;9.48;4.43;;;30.60;20.40;;;;;;5014095;28;20025;-57
2023/09/12 11:50:27;;;;;;;9.07;3.90;;;30.70;20.80;;;;;;5012556;28;20103;-59
2023/09/12 11:53:04;;;;;;;7.85;4.07;;;30.80;20.70;;;;;;5020558;28;20109;-58
2023/09/12 11:55:32;;;;;;;8.55;4.50;;;30.80;21.00;;;;;;5014511;28;20386;-59
2023/09/12 11:57:57;;;;;;;6.70;3.88;;;30.90;20.50;;;;;;5014806;28;20054;-59
2023/09/12 12:00:26;;;;;;;6.05;4.22;;;30.90;20.20;;;;;;5015829;28;20119;-59
2023/09/12 12:02:52;;;;;;;7.32;3.95;;;30.90;20.20;;;;;;5016425;28;20524;-59
2023/09/12 12:05:17;;;;;;;7.88;4.93;;;30.90;20.20;;;;;;5016217;28;20408;-58
2023/09/12 12:07:46;;;;;;;8.60;3.88;;;30.90;20.30;;;;;;5015658;28;20025;-59
2023/09/12 12:10:12;;;;;;;11.02;4.53;;;30.90;20.20;;;;;;5017215;28;20485;-59
2023/09/12 12:12:37;;;;;;;4.68;3.65;;;30.90;20.40;;;;;;5012100;28;20041;-59
2023/09/12 12:15:03;;;;;;;8.75;4.15;;;30.80;20.30;;;;;;5010558;28;20114;-59
2023/09/12 12:17:28;;;;;;;7.60;4.07;;;30.80;20.50;;;;;;5012031;28;20033;-59
2023/09/12 12:19:55;;;;;;;9.95;4.47;;;30.80;20.50;;;;;;5013732;28;20029;-59
2023/09/12 12:22:21;;;;;;;10.57;4.13;;;30.80;20.70;;;;;;5014631;28;20041;-59
2023/09/12 12:24:51;;;;;;;7.25;4.45;;;30.80;20.60;;;;;;5005648;28;20033;-59
2023/09/12 12:27:17;;;;;;;8.88;4.22;;;30.70;20.50;;;;;;5019210;28;20470;-59
2023/09/12 12:29:43;;;;;;;9.65;4.43;;;30.70;20.60;;;;;;5009689;28;20031;-59
2023/09/12 12:32:10;;;;;;;9.80;4.35;;;30.70;20.90;;;;;;5014926;28;20038;-59
2023/09/12 12:34:36;;;;;;;6.03;4.30;;;30.70;20.90;;;;;;5016734;28;20108;-59
2023/09/12 12:37:02;;;;;;;7.78;3.97;;;30.70;20.80;;;;;;5016704;28;21012;-59
2023/09/12 12:39:27;;;;;;;7.10;3.83;;;30.70;20.70;;;;;;5016431;28;20113;-59